Time;durP1;ratioP1;P1;durP2;ratioP2;P2;SDS_P1;SDS_P2;PMS_P1;PMS_P2;Temp;Humidity;BMP_temperature;BMP_pressure;BME280_temperature;BME280_humidity;BME280_pressure;Samples;Min_cycle;Max_cycle;Signal;HPM_P1;HPM_P2
2023/07/03 00:02:00;;;;;;;;;;;22.20;40.10;;;;;;5034860;28;19933;-59
2023/07/03 00:04:27;;;;;;;;;;;22.20;40.00;;;;;;5053147;28;19951;-59
2023/07/03 00:06:54;;;;;;;;;;;22.20;40.10;;;;;;5031316;28;19921;-58
2023/07/03 00:09:21;;;;;;;;;;;22.20;40.10;;;;;;5035005;28;19921;-58
2023/07/03 00:11:48;;;;;;;;;;;22.20;40.10;;;;;;5035472;28;19968;-58
2023/07/03 00:14:14;;;;;;;;;;;22.10;40.00;;;;;;5034455;28;19921;-58
2023/07/03 00:16:43;;;;;;;;;;;22.20;40.10;;;;;;5034615;28;20043;-58
2023/07/03 00:19:13;;;;;;;;;;;22.10;40.00;;;;;;5030078;28;19925;-59
2023/07/03 00:21:43;;;;;;;;;;;22.10;40.00;;;;;;5040842;28;19933;-58
2023/07/03 00:24:10;;;;;;;;;;;22.10;40.00;;;;;;5050050;28;19974;-58
2023/07/03 00:26:36;;;;;;;;;;;22.10;40.00;;;;;;5034218;28;19932;-58
2023/07/03 00:29:03;;;;;;;;;;;22.10;40.00;;;;;;5034240;28;19935;-58
2023/07/03 00:31:30;;;;;;;;;;;22.10;40.00;;;;;;5034720;28;19924;-60
2023/07/03 00:33:59;;;;;;;;;;;22.10;40.00;;;;;;5029916;28;20220;-58
2023/07/03 00:36:25;;;;;;;;;;;22.10;40.00;;;;;;5034126;28;20386;-58
2023/07/03 00:38:57;;;;;;;;;;;22.10;40.00;;;;;;5034385;28;20230;-59
2023/07/03 00:41:23;;;;;;;;;;;22.10;40.00;;;;;;5052846;28;19921;-58
2023/07/03 00:43:50;;;;;;;;;;;22.10;40.00;;;;;;5033941;28;20268;-58
2023/07/03 00:46:17;;;;;;;;;;;22.10;40.00;;;;;;5052212;28;19928;-58
2023/07/03 00:48:45;;;;;;;;;;;22.10;40.00;;;;;;5051461;28;19966;-58
2023/07/03 00:51:13;;;;;;;;;;;22.10;39.90;;;;;;5031795;28;20386;-59
2023/07/03 00:53:40;;;;;;;;;;;22.10;39.90;;;;;;5030396;28;19948;-59
2023/07/03 00:56:07;;;;;;;;;;;22.10;39.90;;;;;;5034653;28;19928;-59
2023/07/03 00:58:33;;;;;;;;;;;22.10;40.00;;;;;;5034223;28;19928;-59
2023/07/03 01:01:01;;;;;;;;;;;22.10;39.90;;;;;;5033893;28;20351;-59
2023/07/03 01:03:32;;;;;;;;;;;22.10;39.90;;;;;;5043949;28;19921;-59
2023/07/03 01:05:59;;;;;;;;;;;22.10;39.90;;;;;;5034786;28;20351;-60
2023/07/03 01:08:27;;;;;;;;;;;22.10;39.90;;;;;;5031569;28;19947;-58
2023/07/03 01:10:54;;;;;;;;;;;22.00;39.80;;;;;;5029508;28;19947;-59
2023/07/03 01:13:21;;;;;;;;;;;22.00;39.80;;;;;;5031166;28;19974;-59
2023/07/03 01:15:48;;;;;;;;;;;22.00;39.80;;;;;;5028324;28;19933;-60
2023/07/03 01:18:14;;;;;;;;;;;22.00;40.00;;;;;;5027192;28;19921;-60
2023/07/03 01:20:43;;;;;;;;;;;22.00;39.80;;;;;;5045538;28;19932;-58
2023/07/03 01:23:12;;;;;;;;;;;22.00;39.90;;;;;;5049519;28;19975;-60
2023/07/03 01:25:41;;;;;;;;;;;22.00;39.90;;;;;;5030397;28;19925;-59
2023/07/03 01:28:08;;;;;;;;;;;22.00;39.90;;;;;;5028693;28;19949;-59
2023/07/03 01:30:34;;;;;;;;;;;22.00;39.90;;;;;;5046672;28;19924;-59
2023/07/03 01:33:01;;;;;;;;;;;22.00;40.00;;;;;;5033173;28;20283;-57
2023/07/03 01:35:28;;;;;;;;;;;22.00;40.00;;;;;;5031911;28;19921;-60
2023/07/03 01:37:55;;;;;;;;;;;22.00;40.00;;;;;;5032834;28;19921;-58
2023/07/03 01:40:23;;;;;;;;;;;22.00;40.10;;;;;;5032517;28;19924;-58
2023/07/03 01:42:51;;;;;;;;;;;22.00;40.10;;;;;;5050595;28;20282;-58
2023/07/03 01:45:18;;;;;;;;;;;22.00;40.20;;;;;;5031056;28;19982;-59
2023/07/03 01:47:44;;;;;;;;;;;22.00;40.30;;;;;;5033267;28;19931;-59
2023/07/03 01:50:12;;;;;;;;;;;22.00;40.30;;;;;;5029519;28;19943;-58
2023/07/03 01:52:39;;;;;;;;;;;22.00;40.30;;;;;;5031266;28;19986;-58
2023/07/03 01:55:07;;;;;;;;;;;22.00;40.40;;;;;;5035277;28;19920;-59
2023/07/03 01:57:35;;;;;;;;;;;22.00;40.40;;;;;;5032084;28;19921;-58
2023/07/03 02:00:05;;;;;;;;;;;22.00;40.50;;;;;;5048348;28;19921;-57
2023/07/03 02:02:32;;;;;;;;;;;22.00;40.50;;;;;;5030219;28;19956;-59
2023/07/03 02:05:00;;;;;;;;;;;22.00;40.50;;;;;;5033670;28;19928;-58
2023/07/03 02:07:27;;;;;;;;;;;22.00;40.60;;;;;;5031907;28;19931;-60
2023/07/03 02:09:54;;;;;;;;;;;22.00;40.60;;;;;;5024192;28;19922;-58
2023/07/03 02:12:20;;;;;;;;;;;22.00;40.60;;;;;;5024918;28;19921;-59
2023/07/03 02:14:47;;;;;;;;;;;22.00;40.60;;;;;;5053988;28;19924;-59
2023/07/03 02:17:15;;;;;;;;;;;22.00;40.60;;;;;;5030246;28;19978;-59
2023/07/03 02:19:42;;;;;;;;;;;22.00;40.70;;;;;;5027262;28;19967;-59
2023/07/03 02:22:09;;;;;;;;;;;22.00;40.70;;;;;;5044949;28;19940;-58
2023/07/03 02:24:36;;;;;;;;;;;22.00;40.70;;;;;;5031359;28;19993;-58
2023/07/03 02:27:02;;;;;;;;;;;22.00;40.70;;;;;;5028887;28;19927;-60
2023/07/03 02:29:29;;;;;;;;;;;22.00;40.70;;;;;;5027451;28;19940;-58
2023/07/03 02:31:56;;;;;;;;;;;22.00;40.70;;;;;;5047974;28;19975;-59
2023/07/03 02:34:24;;;;;;;;;;;22.00;40.70;;;;;;5029807;28;19920;-59
2023/07/03 02:36:51;;;;;;;;;;;22.00;40.80;;;;;;5047263;28;19951;-59
2023/07/03 02:39:18;;;;;;;;;;;22.00;40.80;;;;;;5046483;28;20014;-58
2023/07/03 02:41:45;;;;;;;;;;;22.00;40.80;;;;;;5046719;28;19921;-59
2023/07/03 02:44:11;;;;;;;;;;;22.00;40.80;;;;;;5032299;28;19975;-59
2023/07/03 02:46:39;;;;;;;;;;;22.00;40.80;;;;;;5034187;28;19947;-60
2023/07/03 02:49:06;;;;;;;;;;;22.00;40.80;;;;;;5030978;28;19921;-59
2023/07/03 02:51:34;;;;;;;;;;;22.00;40.80;;;;;;5046323;28;19979;-58
2023/07/03 02:54:01;;;;;;;;;;;22.00;40.80;;;;;;5045207;28;19928;-58
2023/07/03 02:56:28;;;;;;;;;;;22.00;41.40;;;;;;5032689;28;19979;-59
2023/07/03 02:58:54;;;;;;;;;;;22.00;40.80;;;;;;5049817;28;19921;-57
2023/07/03 03:01:21;;;;;;;;;;;22.00;40.90;;;;;;5031843;28;19921;-58
2023/07/03 03:03:48;;;;;;;;;;;22.00;40.90;;;;;;5030381;28;19924;-59
2023/07/03 03:06:15;;;;;;;;;;;22.00;40.90;;;;;;5047637;28;19929;-59
2023/07/03 03:08:45;;;;;;;;;;;22.00;40.90;;;;;;5032316;28;19921;-59
2023/07/03 03:11:13;;;;;;;;;;;22.00;41.00;;;;;;5031407;28;19927;-59
2023/07/03 03:13:41;;;;;;;;;;;22.00;41.00;;;;;;5047781;28;19939;-56
2023/07/03 03:16:08;;;;;;;;;;;22.00;41.00;;;;;;5032274;28;20278;-58
2023/07/03 03:18:34;;;;;;;;;;;22.00;41.00;;;;;;5031442;28;20375;-59
2023/07/03 03:21:01;;;;;;;;;;;22.00;41.10;;;;;;5030365;28;20429;-58
2023/07/03 03:23:28;;;;;;;;;;;22.00;41.10;;;;;;5030048;28;19924;-58
2023/07/03 03:25:56;;;;;;;;;;;22.00;41.10;;;;;;5032243;28;19971;-59
2023/07/03 03:28:23;;;;;;;;;;;22.00;41.20;;;;;;5031440;28;19920;-59
2023/07/03 03:30:50;;;;;;;;;;;22.00;41.20;;;;;;5030116;28;20247;-58
2023/07/03 03:33:17;;;;;;;;;;;22.00;41.20;;;;;;5036240;28;19966;-58
2023/07/03 03:35:46;;;;;;;;;;;22.00;41.20;;;;;;5037150;28;19928;-58
2023/07/03 03:38:12;;;;;;;;;;;22.00;41.30;;;;;;5033101;28;19920;-58
2023/07/03 03:40:39;;;;;;;;;;;22.00;41.30;;;;;;5035319;28;19929;-59
2023/07/03 03:43:07;;;;;;;;;;;22.00;41.30;;;;;;5036558;28;19974;-59
2023/07/03 03:45:34;;;;;;;;;;;22.00;41.40;;;;;;5036298;28;19921;-56
2023/07/03 03:48:01;;;;;;;;;;;22.00;41.40;;;;;;5037223;28;19925;-58
2023/07/03 03:50:27;;;;;;;;;;;22.00;41.50;;;;;;5034516;28;20015;-59
2023/07/03 03:52:54;;;;;;;;;;;22.00;41.50;;;;;;5034567;28;19924;-59
2023/07/03 03:55:21;;;;;;;;;;;22.00;41.50;;;;;;5031007;28;19920;-58
2023/07/03 03:57:47;;;;;;;;;;;22.00;41.50;;;;;;5038669;28;19921;-58
2023/07/03 04:00:20;;;;;;;;;;;22.00;41.60;;;;;;5053537;28;19974;-59
2023/07/03 04:02:46;;;;;;;;;;;22.00;41.70;;;;;;5037805;28;19959;-59
2023/07/03 04:05:13;;;;;;;;;;;22.00;41.60;;;;;;5038188;28;19956;-58
2023/07/03 04:07:40;;;;;;;;;;;21.90;41.60;;;;;;5035461;28;19921;-57
2023/07/03 04:10:08;;;;;;;;;;;22.00;41.80;;;;;;5037415;28;19921;-58
2023/07/03 04:12:34;;;;;;;;;;;22.00;41.80;;;;;;5037335;28;19929;-58
2023/07/03 04:15:01;;;;;;;;;;;22.00;41.80;;;;;;5037254;28;19991;-59
2023/07/03 04:17:30;;;;;;;;;;;22.00;41.90;;;;;;5036408;28;19921;-59
2023/07/03 04:19:56;;;;;;;;;;;22.00;41.90;;;;;;5037975;28;20215;-59
2023/07/03 04:22:25;;;;;;;;;;;22.00;42.00;;;;;;5037068;28;19978;-59
2023/07/03 04:24:52;;;;;;;;;;;22.00;42.00;;;;;;5037094;28;19952;-59
2023/07/03 04:27:19;;;;;;;;;;;22.00;42.00;;;;;;5034554;28;19974;-57
2023/07/03 04:29:46;;;;;;;;;;;22.00;42.10;;;;;;5037131;28;19932;-58
2023/07/03 04:32:12;;;;;;;;;;;22.00;42.10;;;;;;5035806;28;19928;-58
2023/07/03 04:34:40;;;;;;;;;;;22.00;42.10;;;;;;5055954;28;20187;-58
2023/07/03 04:37:08;;;;;;;;;;;22.00;42.20;;;;;;5038824;28;19920;-58
2023/07/03 04:39:35;;;;;;;;;;;22.00;42.20;;;;;;5020373;28;19920;-58
2023/07/03 04:42:01;;;;;;;;;;;22.00;42.30;;;;;;5033210;28;19924;-59
2023/07/03 04:44:28;;;;;;;;;;;22.00;42.30;;;;;;5030135;28;20004;-57
2023/07/03 04:46:55;;;;;;;;;;;22.00;42.30;;;;;;5031944;28;19971;-58
2023/07/03 04:49:25;;;;;;;;;;;22.00;42.40;;;;;;5052100;28;19931;-59
2023/07/03 04:51:54;;;;;;;;;;;22.00;42.40;;;;;;5041197;28;20418;-58
2023/07/03 04:54:21;;;;;;;;;;;22.00;42.50;;;;;;5051085;28;19956;-59
2023/07/03 04:56:49;;;;;;;;;;;22.00;42.50;;;;;;5051651;28;20140;-58
2023/07/03 04:59:16;;;;;;;;;;;22.00;42.50;;;;;;5048402;28;20110;-56
2023/07/03 05:01:43;;;;;;;;;;;22.00;42.50;;;;;;5025662;28;19921;-58
2023/07/03 05:04:09;;;;;;;;;;;22.00;42.60;;;;;;5034508;28;19963;-58
2023/07/03 05:06:36;;;;;;;;;;;22.00;42.60;;;;;;5052504;28;19920;-59
2023/07/03 05:09:06;;;;;;;;;;;22.00;42.60;;;;;;5048254;28;19932;-58
2023/07/03 05:11:33;;;;;;;;;;;22.00;42.70;;;;;;5033487;28;20231;-57
2023/07/03 05:14:00;;;;;;;;;;;22.00;42.70;;;;;;5046845;28;20015;-58
2023/07/03 05:16:27;;;;;;;;;;;22.00;42.80;;;;;;5033749;28;20256;-58
2023/07/03 05:18:54;;;;;;;;;;;22.00;42.80;;;;;;5052031;28;19920;-58
2023/07/03 05:21:20;;;;;;;;;;;22.00;42.90;;;;;;5033050;28;19925;-58
2023/07/03 05:23:47;;;;;;;;;;;22.00;42.90;;;;;;5039165;28;19982;-58
2023/07/03 05:26:15;;;;;;;;;;;22.00;43.00;;;;;;5048817;28;19929;-57
2023/07/03 05:28:42;;;;;;;;;;;22.00;43.00;;;;;;5054791;28;20006;-59
2023/07/03 05:31:09;;;;;;;;;;;22.00;43.10;;;;;;5041624;28;19927;-59
2023/07/03 05:33:36;;;;;;;;;;;22.00;43.10;;;;;;5036530;28;19921;-58
2023/07/03 05:36:03;;;;;;;;;;;22.00;43.20;;;;;;5038762;28;19940;-58
2023/07/03 05:38:29;;;;;;;;;;;22.00;43.20;;;;;;5034478;28;19982;-58
2023/07/03 05:40:56;;;;;;;;;;;22.00;43.20;;;;;;5041684;28;20278;-59
2023/07/03 05:43:26;;;;;;;;;;;22.00;43.30;;;;;;5029694;28;19982;-58
2023/07/03 05:45:53;;;;;;;;;;;22.00;43.30;;;;;;5031958;28;20015;-59
2023/07/03 05:48:20;;;;;;;;;;;22.00;43.40;;;;;;5034656;28;19975;-58
2023/07/03 05:50:47;;;;;;;;;;;22.00;43.40;;;;;;5044441;28;19924;-57
2023/07/03 05:53:13;;;;;;;;;;;22.00;43.50;;;;;;5039484;28;19927;-57
2023/07/03 05:55:40;;;;;;;;;;;22.00;43.60;;;;;;5030809;28;19929;-58
2023/07/03 05:58:07;;;;;;;;;;;22.00;43.60;;;;;;5056649;28;19932;-58
2023/07/03 06:00:36;;;;;;;;;;;22.00;43.70;;;;;;5061298;28;19975;-60
2023/07/03 06:03:04;;;;;;;;;;;22.00;43.70;;;;;;5038906;28;19990;-59
2023/07/03 06:05:31;;;;;;;;;;;22.00;43.70;;;;;;5059742;28;19931;-59
2023/07/03 06:07:58;;;;;;;;;;;22.00;43.80;;;;;;5053747;28;19921;-56
2023/07/03 06:10:25;;;;;;;;;;;22.00;43.80;;;;;;5040629;28;19940;-59
2023/07/03 06:12:52;;;;;;;;;;;22.00;43.80;;;;;;5041089;28;19920;-59
2023/07/03 06:15:19;;;;;;;;;;;22.00;43.90;;;;;;5037997;28;19924;-60
2023/07/03 06:17:47;;;;;;;;;;;22.00;43.90;;;;;;5038458;28;19932;-60
2023/07/03 06:20:14;;;;;;;;;;;22.00;44.00;;;;;;5059366;28;19977;-58
2023/07/03 06:22:40;;;;;;;;;;;22.10;44.10;;;;;;5042111;28;19940;-59
2023/07/03 06:25:07;;;;;;;;;;;22.10;44.10;;;;;;5039155;28;19920;-59
2023/07/03 06:27:34;;;;;;;;;;;22.10;44.10;;;;;;5058175;28;19921;-59
2023/07/03 06:30:01;;;;;;;;;;;22.10;44.20;;;;;;5054946;28;19925;-58
2023/07/03 06:32:28;;;;;;;;;;;22.10;44.20;;;;;;5057152;28;19921;-58
2023/07/03 06:34:56;;;;;;;;;;;22.10;44.20;;;;;;5041280;28;19921;-58
2023/07/03 06:37:23;;;;;;;;;;;22.10;44.30;;;;;;5039057;28;19925;-59
2023/07/03 06:39:50;;;;;;;;;;;22.20;44.40;;;;;;5015161;28;19924;-58
2023/07/03 06:42:17;;;;;;;;;;;22.20;44.30;;;;;;5040275;28;19925;-59
2023/07/03 06:44:44;;;;;;;;;;;22.20;44.30;;;;;;5054168;28;19935;-59
2023/07/03 06:47:11;;;;;;;;;;;22.20;44.30;;;;;;5031901;28;19925;-59
2023/07/03 06:49:37;;;;;;;;;;;22.20;44.30;;;;;;5040378;28;20406;-58
2023/07/03 06:52:06;;;;;;;;;;;22.20;44.30;;;;;;5033682;28;19921;-58
2023/07/03 06:54:33;;;;;;;;;;;22.20;44.30;;;;;;5054841;28;19927;-59
2023/07/03 06:57:00;;;;;;;;;;;22.20;44.30;;;;;;5038790;28;20364;-58
2023/07/03 06:59:27;;;;;;;;;;;22.20;44.30;;;;;;5046925;28;19932;-59
2023/07/03 07:01:54;;;;;;;;;;;22.20;44.40;;;;;;5021651;28;20392;-58
2023/07/03 07:04:21;;;;;;;;;;;22.20;44.40;;;;;;5029646;28;19925;-57
2023/07/03 07:06:48;;;;;;;;;;;22.20;44.40;;;;;;5031398;28;20267;-59
2023/07/03 07:09:17;;;;;;;;;;;22.20;44.30;;;;;;5032378;28;19951;-58
2023/07/03 07:11:46;;;;;;;;;;;22.20;44.40;;;;;;5031080;28;19982;-58
2023/07/03 07:14:13;;;;;;;;;;;22.20;44.30;;;;;;5035481;28;20019;-59
2023/07/03 07:16:42;;;;;;;;;;;22.20;44.40;;;;;;5033685;28;19925;-58
2023/07/03 07:19:09;;;;;;;;;;;22.30;44.50;;;;;;5033242;28;19989;-57
2023/07/03 07:21:37;;;;;;;;;;;22.30;44.50;;;;;;5024758;28;19999;-59
2023/07/03 07:24:12;;;;;;;;;;;22.30;44.50;;;;;;5047469;28;19933;-59
2023/07/03 07:26:40;;;;;;;;;;;22.30;44.50;;;;;;5027583;28;20359;-58
2023/07/03 07:29:07;;;;;;;;;;;22.30;44.50;;;;;;5043832;28;19933;-58
2023/07/03 07:31:36;;;;;;;;;;;22.30;44.50;;;;;;5030200;28;19933;-59
2023/07/03 07:34:03;;;;;;;;;;;22.30;44.50;;;;;;5030191;28;19920;-59
2023/07/03 07:36:30;;;;;;;;;;;22.30;44.50;;;;;;5026260;28;19983;-57
2023/07/03 07:38:56;;;;;;;;;;;22.30;44.50;;;;;;5033257;28;20263;-60
2023/07/03 07:41:24;;;;;;;;;;;22.30;44.50;;;;;;5023888;28;20429;-58
2023/07/03 07:43:53;;;;;;;;;;;22.30;44.50;;;;;;5031131;28;19940;-58
2023/07/03 07:46:20;;;;;;;;;;;22.30;44.50;;;;;;5021993;28;20313;-59
2023/07/03 07:48:47;;;;;;;;;;;22.30;44.40;;;;;;5018275;28;19925;-59
2023/07/03 07:51:14;;;;;;;;;;;22.30;44.50;;;;;;5033722;28;19936;-59
2023/07/03 07:53:41;;;;;;;;;;;22.30;44.30;;;;;;5012830;28;19932;-58
2023/07/03 07:56:08;;;;;;;;;;;22.30;44.30;;;;;;5028214;28;19933;-58
2023/07/03 07:58:35;;;;;;;;;;;22.30;44.20;;;;;;5023790;28;20065;-58
2023/07/03 08:01:04;;;;;;;;;;;22.30;44.30;;;;;;5025147;28;19925;-58
2023/07/03 08:03:31;;;;;;;;;;;22.30;44.20;;;;;;5042327;28;19974;-58
2023/07/03 08:05:58;;;;;;;;;;;22.30;44.20;;;;;;5043617;28;19928;-58
2023/07/03 08:08:26;;;;;;;;;;;22.30;44.20;;;;;;5034750;28;19999;-59
2023/07/03 08:10:53;;;;;;;;;;;22.30;44.20;;;;;;5043622;28;19986;-58
2023/07/03 08:13:20;;;;;;;;;;;22.30;44.20;;;;;;5037123;28;19924;-58
2023/07/03 08:15:46;;;;;;;;;;;22.30;44.30;;;;;;5034253;28;19930;-58
2023/07/03 08:18:15;;;;;;;;;;;22.30;44.40;;;;;;5040634;28;20420;-59
2023/07/03 08:20:44;;;;;;;;;;;22.30;44.40;;;;;;5034055;28;20393;-59
2023/07/03 08:23:10;;;;;;;;;;;22.30;44.50;;;;;;5035119;28;19932;-59
2023/07/03 08:25:37;;;;;;;;;;;22.30;44.50;;;;;;5053417;28;19921;-58
2023/07/03 08:28:05;;;;;;;;;;;22.30;44.50;;;;;;5036952;28;20399;-59
2023/07/03 08:30:32;;;;;;;;;;;22.30;44.50;;;;;;5037638;28;19925;-58
2023/07/03 08:32:59;;;;;;;;;;;22.30;44.50;;;;;;5038773;28;19920;-58
2023/07/03 08:35:27;;;;;;;;;;;22.30;44.50;;;;;;5042638;28;19931;-58
2023/07/03 08:37:54;;;;;;;;;;;22.30;44.50;;;;;;5032545;28;19925;-59
2023/07/03 08:40:21;;;;;;;;;;;22.30;44.50;;;;;;5036705;28;19960;-59
2023/07/03 08:42:50;;;;;;;;;;;22.30;44.40;;;;;;5035468;28;19925;-59
2023/07/03 08:45:18;;;;;;;;;;;22.30;44.50;;;;;;5032508;28;19922;-59
2023/07/03 08:47:45;;;;;;;;;;;22.40;44.60;;;;;;5042894;28;19925;-58
2023/07/03 08:50:13;;;;;;;;;;;22.30;44.70;;;;;;5034779;28;19921;-58
2023/07/03 08:52:42;;;;;;;;;;;22.40;44.90;;;;;;5037112;28;19997;-58
2023/07/03 08:55:10;;;;;;;;;;;22.40;44.90;;;;;;5051331;28;20216;-58
2023/07/03 08:57:37;;;;;;;;;;;22.40;45.10;;;;;;5047583;28;19925;-58
2023/07/03 09:00:05;;;;;;;;;;;22.40;45.10;;;;;;5039068;28;19920;-58
2023/07/03 09:02:33;;;;;;;;;;;22.40;45.20;;;;;;5056793;28;20022;-58
2023/07/03 09:05:09;;;;;;;;;;;22.40;45.20;;;;;;5036297;28;19924;-59
2023/07/03 09:07:38;;;;;;;;;;;22.40;45.30;;;;;;5051031;28;19927;-58
2023/07/03 09:10:07;;;;;;;;;;;22.40;45.20;;;;;;5034830;28;19940;-59
2023/07/03 09:12:34;;;;;;;;;;;22.40;45.20;;;;;;5034364;28;19951;-58
2023/07/03 09:15:02;;;;;;;;;;;22.40;45.20;;;;;;5039612;28;20374;-58
2023/07/03 09:17:29;;;;;;;;;;;22.40;45.20;;;;;;5042717;28;19924;-58
2023/07/03 09:19:56;;;;;;;;;;;22.40;45.20;;;;;;5042517;28;19928;-58
2023/07/03 09:22:25;;;;;;;;;;;22.40;45.20;;;;;;5041664;28;19977;-57
2023/07/03 09:24:52;;;;;;;;;;;22.40;45.10;;;;;;5054710;28;19921;-58
2023/07/03 09:27:20;;;;;;;;;;;22.40;45.10;;;;;;5053611;28;19936;-58
2023/07/03 09:29:48;;;;;;;;;;;22.40;45.70;;;;;;5062477;28;20444;-58
2023/07/03 09:32:22;;;;;;;;;;;22.40;45.10;;;;;;5042458;28;19962;-58
2023/07/03 09:35:03;;;;;;;;;;;22.40;45.10;;;;;;5040616;28;19946;-60
2023/07/03 09:37:30;;;;;;;;;;;22.40;45.20;;;;;;5042618;28;20008;-58
2023/07/03 09:39:57;;;;;;;;;;;22.40;45.20;;;;;;5041281;28;19929;-59
2023/07/03 09:42:25;;;;;;;;;;;22.40;45.30;;;;;;5041709;28;19966;-59
2023/07/03 09:44:52;;;;;;;;;;;22.40;45.30;;;;;;5042482;28;19978;-57
2023/07/03 09:47:20;;;;;;;;;;;22.40;45.30;;;;;;5040507;28;19933;-60
2023/07/03 09:49:46;;;;;;;;;;;22.40;45.30;;;;;;5043724;28;20255;-58
2023/07/03 09:52:13;;;;;;;;;;;22.40;45.40;;;;;;5041215;28;19925;-59
2023/07/03 09:54:41;;;;;;;;;;;22.40;45.40;;;;;;5042501;28;19920;-59
2023/07/03 09:57:13;;;;;;;;;;;22.40;45.40;;;;;;5036846;28;19921;-59
2023/07/03 09:59:41;;;;;;;;;;;22.40;45.30;;;;;;5060537;28;19928;-60
2023/07/03 10:02:08;;;;;;;;;;;22.40;45.20;;;;;;5051156;28;19990;-59
2023/07/03 10:04:34;;;;;;;;;;;22.40;45.10;;;;;;5048435;28;19920;-59
2023/07/03 10:07:02;;;;;;;;;;;22.40;45.00;;;;;;5039635;28;19920;-58
2023/07/03 10:09:31;;;;;;;;;;;22.40;45.00;;;;;;5032813;28;20024;-59
2023/07/03 10:11:59;;;;;;;;;;;22.40;44.90;;;;;;5040601;28;19927;-59
2023/07/03 10:14:27;;;;;;;;;;;22.40;44.90;;;;;;5041946;28;19920;-59
2023/07/03 10:16:55;;;;;;;;;;;22.40;44.80;;;;;;5034673;28;19998;-59
2023/07/03 10:19:22;;;;;;;;;;;22.40;44.70;;;;;;5043338;28;19927;-59
2023/07/03 10:21:49;;;;;;;;;;;22.40;44.70;;;;;;5040310;28;19972;-59
2023/07/03 10:24:16;;;;;;;;;;;22.40;44.60;;;;;;5039938;28;19921;-59
2023/07/03 10:26:44;;;;;;;;;;;22.40;44.60;;;;;;5035343;28;19928;-59
2023/07/03 10:29:11;;;;;;;;;;;22.40;44.60;;;;;;5036082;28;19925;-59
2023/07/03 10:31:39;;;;;;;;;;;22.40;44.70;;;;;;5034713;28;19970;-59
2023/07/03 10:34:10;;;;;;;;;;;22.40;44.70;;;;;;5038215;28;19924;-59
2023/07/03 10:36:39;;;;;;;;;;;22.40;44.60;;;;;;5030059;28;20018;-57
2023/07/03 10:39:07;;;;;;;;;;;22.40;44.60;;;;;;5034893;28;19921;-57
2023/07/03 10:41:35;;;;;;;;;;;22.40;44.40;;;;;;5029467;28;19932;-57
2023/07/03 10:44:06;;;;;;;;;;;22.40;44.20;;;;;;5045797;28;19925;-58
2023/07/03 10:46:34;;;;;;;;;;;22.40;44.20;;;;;;5035221;28;19932;-58
2023/07/03 10:49:03;;;;;;;;;;;22.40;44.20;;;;;;5036450;28;19929;-59
2023/07/03 10:51:33;;;;;;;;;;;22.40;44.20;;;;;;5034029;28;19924;-55
2023/07/03 10:54:01;;;;;;;;;;;22.40;44.20;;;;;;5052143;28;19943;-58
2023/07/03 10:56:30;;;;;;;;;;;22.40;44.30;;;;;;5029163;28;19927;-58
2023/07/03 10:59:00;;;;;;;;;;;22.40;44.40;;;;;;5044886;28;19925;-57
2023/07/03 11:01:29;;;;;;;;;;;22.40;44.50;;;;;;5025486;28;19933;-58
2023/07/03 11:03:58;;;;;;;;;;;22.40;44.50;;;;;;5029936;28;19920;-58
2023/07/03 11:06:26;;;;;;;;;;;22.40;44.50;;;;;;5031806;28;19932;-57
2023/07/03 11:08:57;;;;;;;;;;;22.40;44.60;;;;;;5029748;28;19933;-57
2023/07/03 11:11:26;;;;;;;;;;;22.40;44.60;;;;;;5034984;28;20367;-57
2023/07/03 11:13:55;;;;;;;;;;;22.40;44.70;;;;;;5033234;28;19925;-58
2023/07/03 11:16:22;;;;;;;;;;;22.40;44.70;;;;;;5034920;28;19931;-58
2023/07/03 11:18:55;;;;;;;;;;;22.50;44.90;;;;;;5032268;28;19933;-58
2023/07/03 11:21:25;;;;;;;;;;;22.50;44.90;;;;;;5038258;28;19974;-57
2023/07/03 11:23:54;;;;;;;;;;;22.50;44.90;;;;;;5034300;28;19933;-58
2023/07/03 11:26:25;;;;;;;;;;;22.50;44.90;;;;;;5049337;28;19933;-58
2023/07/03 11:28:52;;;;;;;;;;;22.50;44.90;;;;;;5039857;28;19982;-58
2023/07/03 11:31:19;;;;;;;;;;;22.50;44.90;;;;;;5055480;28;19928;-58
2023/07/03 11:33:46;;;;;;;;;;;22.50;45.00;;;;;;5036424;28;19920;-59
2023/07/03 11:36:28;;;;;;;;;;;22.50;45.00;;;;;;5039007;28;19921;-56
2023/07/03 11:39:10;;;;;;;;;;;22.50;45.00;;;;;;5035702;28;19932;-56
2023/07/03 11:41:48;;;;;;;;;;;22.60;45.10;;;;;;5036131;28;19990;-60
2023/07/03 11:44:18;;;;;;;;;;;22.60;45.10;;;;;;5033180;28;20211;-59
2023/07/03 11:46:51;;;;;;;;;;;22.60;45.10;;;;;;5038257;28;20425;-59
2023/07/03 11:49:18;;;;;;;;;;;22.60;45.20;;;;;;5038645;28;19948;-59
2023/07/03 11:51:45;;;;;;;;;;;22.60;45.30;;;;;;5039723;28;19925;-58
2023/07/03 11:54:16;;;;;;;;;;;22.60;45.30;;;;;;5039624;28;19920;-59
2023/07/03 11:56:54;;;;;;;;;;;22.60;45.30;;;;;;5055783;28;19925;-59
2023/07/03 11:59:25;;;;;;;;;;;22.70;45.40;;;;;;5040529;28;19971;-59
2023/07/03 12:01:51;;;;;;;;;;;22.70;45.40;;;;;;5035863;28;19921;-59
2023/07/03 12:04:33;;;;;;;;;;;22.70;45.50;;;;;;5040728;28;19920;-59
2023/07/03 12:07:00;;;;;;;;;;;22.70;45.50;;;;;;5041229;28;20048;-58
2023/07/03 12:09:28;;;;;;;;;;;22.70;45.50;;;;;;5032243;28;20650;-59
2023/07/03 12:12:15;;;;;;;;;;;22.70;45.60;;;;;;5028333;28;19965;-61
2023/07/03 12:14:56;;;;;;;;;;;22.70;45.60;;;;;;5060117;28;19921;-60
2023/07/03 12:17:24;;;;;;;;;;;22.70;45.60;;;;;;5036746;28;19986;-59
2023/07/03 12:19:54;;;;;;;;;;;22.70;45.70;;;;;;5035602;28;19927;-59
2023/07/03 12:22:21;;;;;;;;;;;22.70;45.60;;;;;;5041142;28;20027;-58
2023/07/03 12:24:48;;;;;;;;;;;22.70;45.60;;;;;;5039870;28;19963;-59
2023/07/03 12:27:16;;;;;;;;;;;22.70;45.60;;;;;;5042216;28;19932;-59
2023/07/03 12:29:47;;;;;;;;;;;22.70;45.60;;;;;;5037993;28;19967;-59
2023/07/03 12:32:14;;;;;;;;;;;22.70;45.60;;;;;;5037454;28;20244;-58
2023/07/03 12:34:41;;;;;;;;;;;22.70;45.60;;;;;;5043888;28;20036;-59
2023/07/03 12:37:09;;;;;;;;;;;22.70;45.60;;;;;;5042702;28;19977;-57
2023/07/03 12:39:35;;;;;;;;;;;22.70;45.60;;;;;;5056098;28;19932;-58
2023/07/03 12:42:06;;;;;;;;;;;22.70;45.60;;;;;;5035112;28;20591;-59
2023/07/03 12:44:34;;;;;;;;;;;22.70;45.60;;;;;;5035515;28;20351;-59
2023/07/03 12:47:07;;;;;;;;;;;22.70;45.60;;;;;;5051944;28;19925;-58
2023/07/03 12:49:34;;;;;;;;;;;22.70;45.60;;;;;;5053382;28;19921;-60
2023/07/03 12:52:03;;;;;;;;;;;22.70;45.60;;;;;;5051001;28;19928;-59
2023/07/03 12:54:30;;;;;;;;;;;22.70;45.60;;;;;;5040961;28;19925;-58
2023/07/03 12:56:57;;;;;;;;;;;22.70;45.60;;;;;;5039150;28;19924;-59
2023/07/03 12:59:24;;;;;;;;;;;22.70;45.70;;;;;;5054222;28;19925;-58
2023/07/03 13:01:52;;;;;;;;;;;22.70;45.70;;;;;;5038491;28;19924;-58
2023/07/03 13:04:29;;;;;;;;;;;22.70;45.70;;;;;;5040702;28;19933;-59
2023/07/03 13:06:55;;;;;;;;;;;22.80;45.80;;;;;;5039442;28;19924;-59
2023/07/03 13:09:22;;;;;;;;;;;22.80;45.80;;;;;;5041039;28;20034;-59
2023/07/03 13:11:50;;;;;;;;;;;22.80;45.80;;;;;;5056739;28;19929;-60
2023/07/03 13:14:18;;;;;;;;;;;22.80;45.80;;;;;;5042884;28;19931;-59
2023/07/03 13:16:45;;;;;;;;;;;22.80;45.80;;;;;;5035575;28;19925;-58
2023/07/03 13:19:16;;;;;;;;;;;22.80;45.80;;;;;;5055822;28;19924;-58
2023/07/03 13:21:42;;;;;;;;;;;22.80;45.90;;;;;;5035430;28;19921;-59
2023/07/03 13:24:10;;;;;;;;;;;22.80;45.90;;;;;;5048482;28;19928;-59
2023/07/03 13:26:37;;;;;;;;;;;22.80;45.90;;;;;;5039167;28;19946;-59
2023/07/03 13:29:04;;;;;;;;;;;22.80;45.90;;;;;;5037632;28;19955;-59
2023/07/03 13:31:32;;;;;;;;;;;22.80;45.90;;;;;;5038012;28;19924;-60
2023/07/03 13:34:01;;;;;;;;;;;22.90;46.00;;;;;;5035877;28;20059;-59
2023/07/03 13:36:30;;;;;;;;;;;22.90;46.00;;;;;;5042995;28;19985;-60
2023/07/03 13:39:00;;;;;;;;;;;22.80;45.90;;;;;;5063852;28;19925;-59
2023/07/03 13:41:27;;;;;;;;;;;22.80;46.00;;;;;;5038298;28;19932;-58
2023/07/03 13:43:55;;;;;;;;;;;22.90;46.00;;;;;;5036826;28;19936;-58
2023/07/03 13:46:22;;;;;;;;;;;22.90;46.00;;;;;;5042739;28;20341;-59
2023/07/03 13:48:49;;;;;;;;;;;22.90;46.00;;;;;;5062204;28;19978;-59
2023/07/03 13:51:16;;;;;;;;;;;22.90;46.00;;;;;;5039126;28;19925;-58
2023/07/03 13:53:44;;;;;;;;;;;22.90;46.00;;;;;;5037583;28;19921;-58
2023/07/03 13:56:11;;;;;;;;;;;22.90;45.90;;;;;;5043381;28;20356;-58
2023/07/03 13:58:37;;;;;;;;;;;22.90;45.90;;;;;;5041268;28;19924;-59
2023/07/03 14:01:05;;;;;;;;;;;22.90;45.90;;;;;;5061298;28;19921;-59
2023/07/03 14:03:32;;;;;;;;;;;22.90;45.90;;;;;;5034541;28;19929;-58
2023/07/03 14:05:59;;;;;;;;;;;22.90;45.90;;;;;;5040606;28;19920;-60
2023/07/03 14:08:27;;;;;;;;;;;22.90;45.90;;;;;;5036697;28;19928;-59
2023/07/03 14:10:55;;;;;;;;;;;22.90;45.90;;;;;;5036512;28;19988;-59
2023/07/03 14:13:22;;;;;;;;;;;22.90;45.90;;;;;;5036553;28;19933;-59
2023/07/03 14:15:49;;;;;;;;;;;22.90;45.90;;;;;;5037494;28;19924;-58
2023/07/03 14:18:17;;;;;;;;;;;22.90;45.90;;;;;;5043220;28;19939;-59
2023/07/03 14:20:44;;;;;;;;;;;22.90;45.80;;;;;;5043308;28;19920;-59